Time;durP1;ratioP1;P1;durP2;ratioP2;P2;SDS_P1;SDS_P2;PMS_P1;PMS_P2;Temp;Humidity;BMP_temperature;BMP_pressure;BME280_temperature;BME280_humidity;BME280_pressure;Samples;Min_cycle;Max_cycle;Signal;HPM_P1;HPM_P2
2022/11/23 00:00:25;;;;;;;23.25;10.20;;;;;;;7.88;100.00;99600.44;5046861;28;20024;-73
2022/11/23 00:02:57;;;;;;;22.05;10.73;;;;;;;7.86;100.00;99597.91;5056362;28;20037;-72
2022/11/23 00:05:23;;;;;;;30.52;10.98;;;;;;;7.86;100.00;99602.56;5062225;28;20644;-73
2022/11/23 00:07:49;;;;;;;23.85;10.48;;;;;;;7.74;100.00;99604.25;5061375;28;20274;-74
2022/11/23 00:10:16;;;;;;;30.75;10.45;;;;;;;7.72;100.00;99606.31;5060279;28;20041;-72
2022/11/23 00:12:41;;;;;;;33.42;12.85;;;;;;;7.76;100.00;99604.84;5043862;28;20484;-72
2022/11/23 00:15:07;;;;;;;26.40;10.90;;;;;;;7.71;100.00;99615.53;5064656;28;20111;-72
2022/11/23 00:17:33;;;;;;;24.90;10.45;;;;;;;7.67;100.00;99617.84;5064337;28;20108;-73
2022/11/23 00:19:58;;;;;;;26.23;10.52;;;;;;;7.70;100.00;99625.59;5040112;28;20021;-72
2022/11/23 00:22:24;;;;;;;29.75;11.30;;;;;;;7.66;100.00;99632.53;5062668;28;20132;-73
2022/11/23 00:24:49;;;;;;;28.92;10.85;;;;;;;7.70;100.00;99631.03;5048794;28;20119;-72
2022/11/23 00:27:15;;;;;;;27.98;10.73;;;;;;;7.79;100.00;99637.16;5061822;28;20058;-72
2022/11/23 00:29:40;;;;;;;26.65;11.02;;;;;;;7.77;100.00;99636.50;5059507;28;20036;-73
2022/11/23 00:32:06;;;;;;;40.80;12.20;;;;;;;7.73;100.00;99637.97;5062423;28;20376;-72
2022/11/23 00:34:31;;;;;;;22.27;11.02;;;;;;;7.82;100.00;99647.63;5060846;28;20033;-74
2022/11/23 00:36:56;;;;;;;25.88;11.90;;;;;;;7.81;100.00;99645.97;5045960;28;20089;-72
2022/11/23 00:39:23;;;;;;;28.30;11.63;;;;;;;7.80;100.00;99647.00;5059695;28;20406;-71
2022/11/23 00:41:48;;;;;;;34.40;12.38;;;;;;;7.82;100.00;99643.03;5049645;28;20534;-72
2022/11/23 00:44:14;;;;;;;29.38;10.52;;;;;;;7.81;100.00;99646.81;5059262;28;20063;-70
2022/11/23 00:46:39;;;;;;;32.92;11.23;;;;;;;7.77;100.00;99651.00;5063123;28;20438;-71
2022/11/23 00:49:05;;;;;;;39.92;11.07;;;;;;;7.88;100.00;99647.63;5058236;28;20388;-70
2022/11/23 00:51:34;;;;;;;42.63;12.50;;;;;;;7.81;100.00;99648.69;5063038;28;20396;-74
2022/11/23 00:54:01;;;;;;;29.50;10.75;;;;;;;7.73;100.00;99647.00;5064883;28;20709;-71
2022/11/23 00:56:28;;;;;;;24.10;10.68;;;;;;;7.70;100.00;99652.03;5043304;28;20078;-72
2022/11/23 00:58:54;;;;;;;;;;;;;;;7.73;100.00;99646.16;5062738;28;20542;-72
2022/11/23 01:01:22;;;;;;;30.38;10.48;;;;;;;7.68;100.00;99657.69;5061530;28;19916;-71
2022/11/23 01:03:50;;;;;;;22.15;11.35;;;;;;;7.60;100.00;99641.53;5066381;28;20395;-73
2022/11/23 01:06:24;;;;;;;22.65;10.18;;;;;;;7.56;100.00;99647.59;5064256;28;20063;-72
2022/11/23 01:08:56;;;;;;;17.88;9.13;;;;;;;7.49;100.00;99649.47;5062624;28;20025;-72
2022/11/23 01:11:23;;;;;;;28.23;9.27;;;;;;;7.47;100.00;99646.97;5040526;28;20703;-71
2022/11/23 01:13:48;;;;;;;22.77;9.40;;;;;;;7.34;100.00;99644.22;5061307;28;20067;-72
2022/11/23 01:16:20;;;;;;;25.80;9.55;;;;;;;7.18;100.00;99651.91;5062010;28;20054;-71
2022/11/23 01:18:45;;;;;;;22.15;8.88;;;;;;;7.07;100.00;99650.63;5059284;28;20040;-71
2022/11/23 01:21:10;;;;;;;25.42;8.95;;;;;;;6.96;100.00;99653.09;5060913;28;20037;-71
2022/11/23 01:23:36;;;;;;;24.45;9.57;;;;;;;6.88;100.00;99653.28;5063101;28;20054;-72
2022/11/23 01:26:07;;;;;;;18.70;7.85;;;;;;;6.96;100.00;99655.81;5042066;28;20442;-72
2022/11/23 01:28:33;;;;;;;24.05;7.55;;;;;;;7.06;100.00;99659.81;5065462;28;20036;-71
2022/11/23 01:31:13;;;;;;;19.52;7.40;;;;;;;7.04;100.00;99659.19;5061279;28;20077;-73
2022/11/23 01:33:38;;;;;;;22.45;7.22;;;;;;;6.99;100.00;99660.88;5064692;28;20072;-72
2022/11/23 01:36:09;;;;;;;22.35;8.73;;;;;;;6.97;100.00;99661.06;5048223;28;20440;-72
2022/11/23 01:38:34;;;;;;;20.63;6.78;;;;;;;6.96;100.00;99670.28;5065137;28;20036;-72
2022/11/23 01:40:59;;;;;;;13.50;6.35;;;;;;;6.94;100.00;99671.53;5063297;28;20501;-72
2022/11/23 01:43:25;;;;;;;16.67;6.57;;;;;;;6.90;100.00;99670.25;5064634;28;20588;-71
2022/11/23 01:45:58;;;;;;;14.65;6.22;;;;;;;6.77;100.00;99678.31;5062826;28;20028;-72
2022/11/23 01:49:06;;;;;;;17.58;5.70;;;;;;;6.80;100.00;99676.06;5063987;28;20033;-72
2022/11/23 01:51:38;;;;;;;20.67;5.72;;;;;;;6.87;100.00;99671.50;5067177;28;20131;-72
2022/11/23 01:54:10;;;;;;;17.63;6.13;;;;;;;6.99;100.00;99674.47;5062877;28;20082;-71
2022/11/23 01:56:42;;;;;;;21.85;6.78;;;;;;;7.19;100.00;99680.81;5065230;28;20116;-73
2022/11/23 01:59:13;;;;;;;14.57;6.18;;;;;;;7.11;100.00;99681.00;5060441;28;20094;-72
2022/11/23 02:01:38;;;;;;;17.88;6.68;;;;;;;7.18;100.00;99690.88;5050153;28;20021;-72
2022/11/23 02:04:07;;;;;;;20.50;7.35;;;;;;;7.21;100.00;99681.47;5050687;28;20445;-71
2022/11/23 02:06:34;;;;;;;28.98;7.93;;;;;;;7.24;100.00;99679.19;5062935;28;20089;-71
2022/11/23 02:08:59;;;;;;;19.38;8.02;;;;;;;7.28;100.00;99679.59;5045273;28;20131;-74
2022/11/23 02:11:25;;;;;;;33.15;9.93;;;;;;;7.38;100.00;99674.59;5061434;28;20563;-72
2022/11/23 02:13:50;;;;;;;19.48;8.38;;;;;;;7.34;100.00;99681.50;5064018;28;20472;-74
2022/11/23 02:16:17;;;;;;;30.25;10.30;;;;;;;7.45;100.00;99689.94;5063792;28;20037;-71
2022/11/23 02:18:45;;;;;;;17.23;8.25;;;;;;;7.52;100.00;99689.94;5047404;28;20063;-71
2022/11/23 02:21:11;;;;;;;22.63;9.32;;;;;;;7.58;100.00;99686.41;5047277;28;20058;-72
2022/11/23 02:23:46;;;;;;;30.08;9.40;;;;;;;7.54;100.00;99683.22;5062406;28;20037;-73
2022/11/23 02:26:15;;;;;;;17.10;8.35;;;;;;;7.48;100.00;99678.59;5066490;28;20093;-72
2022/11/23 02:28:57;;;;;;;14.10;7.63;;;;;;;7.57;100.00;99695.59;5060748;28;20496;-73
2022/11/23 02:31:22;;;;;;;14.98;7.13;;;;;;;7.64;100.00;99675.50;5063015;28;20033;-71
2022/11/23 02:33:48;;;;;;;22.67;7.95;;;;;;;7.73;100.00;99666.06;5061022;28;20337;-75
2022/11/23 02:36:39;;;;;;;16.40;6.28;;;;;;;7.77;100.00;99674.66;5062753;28;20028;-74
2022/11/23 02:39:29;;;;;;;13.38;5.60;;;;;;;7.76;100.00;99673.84;5063176;28;20033;-71
2022/11/23 02:41:55;;;;;;;15.63;5.78;;;;;;;7.81;100.00;99681.41;5065080;28;20043;-72
2022/11/23 02:44:41;;;;;;;12.30;4.90;;;;;;;7.84;100.00;99676.34;5063980;28;20119;-72
2022/11/23 02:47:08;;;;;;;15.35;5.22;;;;;;;7.89;100.00;99670.28;5058540;28;20032;-72
2022/11/23 02:49:34;;;;;;;11.20;5.05;;;;;;;7.89;100.00;99678.44;5061169;28;20123;-71
2022/11/23 02:52:00;;;;;;;13.73;5.68;;;;;;;7.91;100.00;99677.19;5067608;28;20039;-73
2022/11/23 02:54:26;;;;;;;14.02;6.03;;;;;;;7.93;100.00;99687.91;5065084;28;20039;-71
2022/11/23 02:56:52;;;;;;;12.23;5.45;;;;;;;7.91;100.00;99684.56;5065048;28;20491;-72
2022/11/23 02:59:18;;;;;;;14.88;6.00;;;;;;;7.97;100.00;99680.97;5053972;28;20555;-72
2022/11/23 03:01:43;;;;;;;15.00;5.25;;;;;;;8.00;100.00;99691.50;5065964;28;20041;-73
2022/11/23 03:04:09;;;;;;;26.13;6.47;;;;;;;8.07;100.00;99690.41;5062151;28;20511;-73
2022/11/23 03:06:35;;;;;;;13.35;5.88;;;;;;;8.03;100.00;99689.19;5045186;28;20029;-72
2022/11/23 03:09:00;;;;;;;15.52;5.88;;;;;;;8.15;100.00;99694.81;5062759;28;20028;-72
2022/11/23 03:11:26;;;;;;;16.02;6.18;;;;;;;8.16;100.00;99691.06;5046369;28;20028;-72
2022/11/23 03:13:51;;;;;;;13.57;5.95;;;;;;;8.17;100.00;99684.56;5064628;28;20127;-73
2022/11/23 03:16:16;;;;;;;12.50;5.30;;;;;;;8.15;100.00;99697.53;5063467;28;20036;-72
2022/11/23 03:18:42;;;;;;;9.65;5.53;;;;;;;8.11;100.00;99686.22;5062132;28;20083;-71
2022/11/23 03:21:08;;;;;;;18.13;6.13;;;;;;;8.22;100.00;99693.00;5065450;28;20440;-72
2022/11/23 03:23:34;;;;;;;10.60;4.75;;;;;;;8.15;100.00;99683.91;5036973;28;20052;-71
2022/11/23 03:25:59;;;;;;;15.13;4.57;;;;;;;8.16;100.00;99685.63;5069025;28;20029;-73
2022/11/23 03:28:25;;;;;;;11.57;4.80;;;;;;;8.17;100.00;99698.19;5049876;28;20083;-72
2022/11/23 03:30:51;;;;;;;18.65;6.32;;;;;;;8.13;100.00;99688.75;5064633;28;20107;-70
2022/11/23 03:33:17;;;;;;;15.00;5.40;;;;;;;8.12;100.00;99695.25;5061252;28;20043;-74
2022/11/23 03:35:43;;;;;;;10.65;4.88;;;;;;;8.10;100.00;99697.34;5061318;28;20082;-71
2022/11/23 03:38:08;;;;;;;14.13;4.63;;;;;;;8.08;100.00;99694.00;5061740;28;20032;-71
2022/11/23 03:40:33;;;;;;;13.40;4.95;;;;;;;8.10;100.00;99698.19;5066504;28;20028;-71
2022/11/23 03:42:59;;;;;;;11.50;5.40;;;;;;;8.11;100.00;99693.59;5063973;28;20037;-71
2022/11/23 03:45:24;;;;;;;13.32;4.97;;;;;;;8.15;100.00;99698.41;5063348;28;20033;-71
2022/11/23 03:47:49;;;;;;;24.27;5.55;;;;;;;8.11;100.00;99699.03;5059721;28;20037;-71
2022/11/23 03:50:15;;;;;;;17.63;5.60;;;;;;;8.20;100.00;99697.78;5063223;28;20040;-71
2022/11/23 03:52:40;;;;;;;9.75;5.03;;;;;;;8.23;100.00;99702.84;5061387;28;20024;-70
2022/11/23 03:55:06;;;;;;;17.67;5.97;;;;;;;8.30;100.00;99698.22;5061829;28;20391;-71
2022/11/23 03:57:31;;;;;;;16.75;6.03;;;;;;;8.29;100.00;99694.66;5050504;28;20032;-71
2022/11/23 03:59:57;;;;;;;17.05;5.97;;;;;;;8.29;100.00;99691.94;5065429;28;20025;-70
2022/11/23 04:02:22;;;;;;;18.20;5.90;;;;;;;8.31;100.00;99697.16;5046150;28;20032;-72
2022/11/23 04:04:48;;;;;;;11.65;5.40;;;;;;;8.30;100.00;99701.78;5061424;28;20061;-71
2022/11/23 04:07:13;;;;;;;16.90;5.90;;;;;;;8.30;100.00;99704.53;5062795;28;20033;-72
2022/11/23 04:09:38;;;;;;;20.05;6.05;;;;;;;8.31;100.00;99698.00;5063352;28;20120;-72
2022/11/23 04:12:04;;;;;;;9.95;4.30;;;;;;;8.26;100.00;99696.94;5061424;28;20052;-71
2022/11/23 04:14:29;;;;;;;18.65;5.53;;;;;;;8.28;100.00;99701.16;5061111;28;20093;-71
2022/11/23 04:16:56;;;;;;;15.43;5.75;;;;;;;8.24;100.00;99699.06;5057980;28;20024;-71
2022/11/23 04:19:21;;;;;;;17.52;5.38;;;;;;;8.28;100.00;99701.16;5065049;28;20438;-71
2022/11/23 04:21:47;;;;;;;21.02;5.55;;;;;;;8.27;100.00;99698.66;5051328;28;20025;-72
2022/11/23 04:24:12;;;;;;;22.45;5.45;;;;;;;8.32;100.00;99698.88;5049914;28;20042;-72
2022/11/23 04:26:39;;;;;;;14.32;5.50;;;;;;;8.35;100.00;99707.47;5064223;28;20040;-72
2022/11/23 04:29:05;;;;;;;11.52;4.63;;;;;;;8.34;100.00;99703.03;5060157;28;20025;-72
2022/11/23 04:31:30;;;;;;;15.95;5.22;;;;;;;8.38;100.00;99695.28;5060224;28;20479;-72
2022/11/23 04:33:56;;;;;;;13.27;4.63;;;;;;;8.32;100.00;99698.88;5060389;28;20041;-72
2022/11/23 04:36:21;;;;;;;13.45;5.22;;;;;;;8.28;100.00;99695.69;5060066;28;20104;-70
2022/11/23 04:38:47;;;;;;;20.00;4.32;;;;;;;8.25;100.00;99701.59;5058365;28;20067;-73
2022/11/23 04:41:12;;;;;;;8.65;3.08;;;;;;;8.26;100.00;99691.50;5060951;28;20033;-71
2022/11/23 04:43:37;;;;;;;21.73;4.90;;;;;;;8.21;100.00;99702.19;5062577;28;20383;-71
2022/11/23 04:46:03;;;;;;;15.30;4.72;;;;;;;8.21;100.00;99692.13;5063193;28;20032;-71
2022/11/23 04:48:28;;;;;;;11.55;3.67;;;;;;;8.18;100.00;99689.78;5060822;28;20488;-71
2022/11/23 04:50:54;;;;;;;10.95;3.47;;;;;;;8.21;100.00;99691.28;5058700;28;20384;-71
2022/11/23 04:53:19;;;;;;;22.67;4.15;;;;;;;8.13;100.00;99697.78;5058457;28;20090;-71
2022/11/23 04:55:46;;;;;;;13.70;3.55;;;;;;;8.12;100.00;99698.81;5064893;28;20024;-72
2022/11/23 04:58:11;;;;;;;10.23;3.25;;;;;;;8.04;100.00;99690.84;5066629;28;20027;-71
2022/11/23 05:00:37;;;;;;;14.13;3.53;;;;;;;8.01;100.00;99698.63;5060151;28;20484;-73
2022/11/23 05:03:02;;;;;;;13.93;3.60;;;;;;;7.93;100.00;99691.47;5057120;28;20522;-73
2022/11/23 05:05:28;;;;;;;14.75;4.22;;;;;;;8.00;100.00;99694.22;5050389;28;20028;-73
2022/11/23 05:07:54;;;;;;;22.45;4.63;;;;;;;7.94;100.00;99698.59;5065524;28;20506;-71
2022/11/23 05:10:19;;;;;;;21.55;4.82;;;;;;;7.91;100.00;99692.72;5063146;28;20121;-71
2022/11/23 05:12:44;;;;;;;25.67;4.97;;;;;;;7.93;100.00;99709.72;5072760;28;20412;-70
2022/11/23 05:15:12;;;;;;;18.58;5.15;;;;;;;7.99;100.00;99701.53;5057310;28;20052;-71
2022/11/23 05:17:37;;;;;;;19.85;4.70;;;;;;;7.89;100.00;99700.25;5064071;28;20348;-70
2022/11/23 05:20:03;;;;;;;21.83;5.75;;;;;;;7.89;100.00;99702.97;5045163;28;20028;-72
2022/11/23 05:22:28;;;;;;;16.23;4.65;;;;;;;7.90;100.00;99701.97;5060775;28;20450;-70
2022/11/23 05:24:53;;;;;;;13.73;4.20;;;;;;;7.85;100.00;99707.19;5061014;28;20021;-73
2022/11/23 05:27:19;;;;;;;18.65;4.75;;;;;;;7.89;100.00;99705.72;5062880;28;20040;-72
2022/11/23 05:29:45;;;;;;;10.73;4.53;;;;;;;7.89;100.00;99709.28;5062680;28;20052;-72
2022/11/23 05:32:10;;;;;;;21.55;5.15;;;;;;;7.92;100.00;99711.63;5043030;28;20104;-72
2022/11/23 05:34:36;;;;;;;19.05;4.60;;;;;;;7.86;100.00;99714.31;5051715;28;20531;-71
2022/11/23 05:37:01;;;;;;;12.95;4.45;;;;;;;7.93;100.00;99706.97;5054524;28;20024;-72
2022/11/23 05:39:26;;;;;;;18.08;4.60;;;;;;;7.87;100.00;99708.66;5065288;28;20465;-72
2022/11/23 05:41:52;;;;;;;14.73;4.30;;;;;;;7.89;100.00;99703.84;5063006;28;20025;-73
2022/11/23 05:44:17;;;;;;;16.83;4.07;;;;;;;7.90;100.00;99707.41;5064693;28;20497;-73
2022/11/23 05:46:43;;;;;;;22.35;4.68;;;;;;;7.89;100.00;99700.25;5063095;28;20128;-72
2022/11/23 05:49:08;;;;;;;14.10;4.13;;;;;;;7.90;100.00;99713.69;5066318;28;20060;-70
2022/11/23 05:51:34;;;;;;;11.48;3.15;;;;;;;7.91;100.00;99709.09;5065329;28;20086;-71
2022/11/23 05:54:01;;;;;;;16.95;4.35;;;;;;;7.88;100.00;99704.03;5065191;28;20029;-73
2022/11/23 05:56:26;;;;;;;15.13;3.78;;;;;;;7.81;100.00;99706.78;5062676;28;20076;-72
2022/11/23 05:58:55;;;;;;;15.85;4.00;;;;;;;7.76;100.00;99706.56;5062460;28;20080;-71
2022/11/23 06:01:20;;;;;;;18.92;3.35;;;;;;;7.65;100.00;99707.16;5068627;28;20063;-71
2022/11/23 06:03:45;;;;;;;16.98;3.60;;;;;;;7.58;100.00;99708.19;5069583;28;20087;-71
2022/11/23 06:06:11;;;;;;;14.95;3.55;;;;;;;7.43;100.00;99710.25;5056041;28;20086;-71
2022/11/23 06:08:36;;;;;;;16.65;3.90;;;;;;;7.45;100.00;99705.41;5064108;28;20032;-73
2022/11/23 06:11:01;;;;;;;23.13;3.88;;;;;;;7.33;100.00;99707.06;5063373;28;20024;-70
2022/11/23 06:13:27;;;;;;;17.65;4.25;;;;;;;7.17;100.00;99704.69;5065284;28;20020;-71
2022/11/23 06:15:52;;;;;;;12.48;3.97;;;;;;;7.16;100.00;99709.28;5062018;28;20070;-72
2022/11/23 06:18:17;;;;;;;21.88;4.13;;;;;;;7.15;100.00;99706.81;5063761;28;20040;-70
2022/11/23 06:20:43;;;;;;;19.88;4.38;;;;;;;7.23;100.00;99714.78;5060934;28;20078;-70
2022/11/23 06:23:08;;;;;;;16.13;3.15;;;;;;;7.16;100.00;99701.13;5066895;28;20392;-70
2022/11/23 06:25:34;;;;;;;23.17;3.95;;;;;;;7.04;100.00;99707.38;5046686;28;21077;-71
2022/11/23 06:28:00;;;;;;;17.40;3.90;;;;;;;7.10;100.00;99706.56;5062601;28;20032;-70
2022/11/23 06:30:27;;;;;;;16.03;4.50;;;;;;;7.01;100.00;99700.47;5061963;28;20025;-71
2022/11/23 06:32:53;;;;;;;19.60;3.92;;;;;;;7.01;100.00;99705.91;5042203;28;20116;-72
2022/11/23 06:35:18;;;;;;;20.90;3.80;;;;;;;6.93;100.00;99706.06;5060834;28;20424;-71
2022/11/23 06:37:44;;;;;;;21.00;3.33;;;;;;;6.84;100.00;99704.53;5042680;28;20131;-70
2022/11/23 06:40:11;;;;;;;22.77;3.90;;;;;;;6.84;100.00;99704.53;5067299;28;20059;-71
2022/11/23 06:42:36;;;;;;;17.83;3.33;;;;;;;6.77;100.00;99697.38;5062179;28;20041;-73
2022/11/23 06:45:02;;;;;;;20.40;3.90;;;;;;;6.84;100.00;99712.69;5063267;28;20373;-71
2022/11/23 06:47:28;;;;;;;22.03;4.13;;;;;;;6.89;100.00;99718.38;5062234;28;20037;-72
2022/11/23 06:49:53;;;;;;;31.25;4.35;;;;;;;6.88;100.00;99715.88;5064494;28;20498;-71
2022/11/23 06:52:19;;;;;;;16.75;2.58;;;;;;;7.01;100.00;99718.66;5045001;28;20035;-70
2022/11/23 06:54:45;;;;;;;15.52;3.13;;;;;;;7.05;100.00;99728.09;5064363;28;20033;-72
2022/11/23 06:57:10;;;;;;;20.17;4.85;;;;;;;6.98;100.00;99721.78;5063649;28;20044;-70
2022/11/23 06:59:36;;;;;;;17.83;2.95;;;;;;;6.99;100.00;99727.03;5048185;28;20858;-70
2022/11/23 07:02:01;;;;;;;18.85;4.70;;;;;;;7.09;100.00;99726.63;5064881;28;20078;-70
2022/11/23 07:04:27;;;;;;;22.35;3.13;;;;;;;7.17;100.00;99732.78;5060276;28;20043;-70
2022/11/23 07:06:52;;;;;;;14.52;3.42;;;;;;;7.22;100.00;99738.44;5048462;28;20112;-70
2022/11/23 07:09:17;;;;;;;20.13;3.75;;;;;;;7.27;100.00;99738.66;5049250;28;20079;-71
2022/11/23 07:11:43;;;;;;;15.50;4.40;;;;;;;7.34;100.00;99744.16;5060994;28;20033;-70
2022/11/23 07:14:08;;;;;;;18.23;3.67;;;;;;;7.34;100.00;99745.00;5062540;28;20335;-71
2022/11/23 07:16:34;;;;;;;19.42;3.55;;;;;;;7.35;100.00;99754.00;5062458;28;20111;-72
2022/11/23 07:18:59;;;;;;;20.60;3.17;;;;;;;7.45;100.00;99751.72;5061996;28;20369;-74
2022/11/23 07:21:25;;;;;;;24.50;4.15;;;;;;;7.43;100.00;99749.19;5063256;28;20363;-72
2022/11/23 07:23:50;;;;;;;19.50;3.03;;;;;;;7.54;100.00;99764.13;5065283;28;20039;-72
2022/11/23 07:26:15;;;;;;;18.38;4.07;;;;;;;7.47;100.00;99763.28;5073727;28;20032;-72
2022/11/23 07:28:41;;;;;;;37.65;8.55;;;;;;;7.51;100.00;99761.81;5063549;28;20024;-71
2022/11/23 07:31:07;;;;;;;19.38;4.90;;;;;;;7.56;100.00;99770.22;5061783;28;20033;-71
2022/11/23 07:33:32;;;;;;;21.50;4.53;;;;;;;7.58;100.00;99768.97;5040896;28;20040;-71
2022/11/23 07:36:01;;;;;;;18.85;3.58;;;;;;;7.58;100.00;99768.13;5073548;28;20032;-70
2022/11/23 07:38:26;;;;;;;23.75;6.40;;;;;;;7.63;100.00;99777.38;5046904;28;20063;-70
2022/11/23 07:40:52;;;;;;;15.00;3.28;;;;;;;7.65;100.00;99788.91;5058405;28;20029;-71
2022/11/23 07:43:17;;;;;;;23.73;5.47;;;;;;;7.69;100.00;99798.34;5058266;28;20032;-72
2022/11/23 07:45:42;;;;;;;18.55;3.88;;;;;;;7.66;100.00;99792.47;5061997;28;20027;-71
2022/11/23 07:48:08;;;;;;;29.25;3.88;;;;;;;7.64;100.00;99792.66;5058615;28;20494;-70
2022/11/23 07:50:36;;;;;;;18.80;3.45;;;;;;;7.63;100.00;99799.16;5050650;28;20029;-70
2022/11/23 07:53:03;;;;;;;21.23;5.10;;;;;;;7.61;100.00;99795.81;5070028;28;20037;-70
2022/11/23 07:55:30;;;;;;;16.15;3.80;;;;;;;7.66;100.00;99806.09;5065315;28;20021;-71
2022/11/23 07:57:56;;;;;;;19.65;4.20;;;;;;;7.64;100.00;99792.66;5062600;28;20112;-71
2022/11/23 08:00:22;;;;;;;29.73;6.07;;;;;;;7.73;100.00;99786.00;5065102;28;20171;-71
2022/11/23 08:02:48;;;;;;;30.37;9.10;;;;;;;7.73;100.00;99779.69;5062863;28;20265;-71
2022/11/23 08:05:14;;;;;;;25.00;5.63;;;;;;;7.71;100.00;99788.09;5060207;28;20502;-71
2022/11/23 08:07:39;;;;;;;25.33;4.30;;;;;;;7.77;100.00;99786.41;5065074;28;20024;-70
2022/11/23 08:10:05;;;;;;;24.10;4.70;;;;;;;7.89;99.97;99784.78;5065968;28;20070;-70
2022/11/23 08:12:30;;;;;;;27.25;6.00;;;;;;;7.92;99.83;99795.28;5061234;28;20028;-71
2022/11/23 08:14:56;;;;;;;17.48;3.92;;;;;;;8.02;98.84;99795.72;5071053;28;20030;-73
2022/11/23 08:17:21;;;;;;;29.13;4.65;;;;;;;8.05;98.06;99787.97;5049742;28;20414;-70
2022/11/23 08:19:47;;;;;;;18.90;4.38;;;;;;;8.01;98.26;99791.31;5042202;28;20036;-72
2022/11/23 08:22:12;;;;;;;28.67;4.30;;;;;;;8.05;98.02;99792.56;5062389;28;20044;-71
2022/11/23 08:24:37;;;;;;;17.10;3.60;;;;;;;8.08;97.46;99803.06;5056560;28;20460;-71
2022/11/23 08:27:03;;;;;;;15.65;3.70;;;;;;;8.17;96.54;99807.28;5061145;28;20541;-72
2022/11/23 08:29:29;;;;;;;25.70;3.35;;;;;;;8.15;96.27;99796.59;5058626;28;20422;-71
2022/11/23 08:31:54;;;;;;;14.50;3.03;;;;;;;8.18;95.95;99795.34;5043844;28;20036;-71
2022/11/23 08:34:20;;;;;;;24.08;3.88;;;;;;;8.16;95.77;99802.91;5057588;28;20047;-70
2022/11/23 08:36:46;;;;;;;23.33;4.18;;;;;;;8.19;95.87;99806.03;5058686;28;20028;-71
2022/11/23 08:39:13;;;;;;;18.40;4.10;;;;;;;8.12;96.48;99804.34;5040906;28;20119;-73
2022/11/23 08:41:39;;;;;;;16.65;3.63;;;;;;;8.10;96.12;99809.16;5035440;28;20105;-71
2022/11/23 08:44:05;;;;;;;19.08;4.25;;;;;;;7.97;96.14;99799.09;5054862;28;20029;-71
2022/11/23 08:46:31;;;;;;;15.25;3.80;;;;;;;7.93;96.46;99810.59;5066068;28;20032;-70
2022/11/23 08:48:56;;;;;;;19.08;3.67;;;;;;;7.92;97.02;99798.00;5064442;28;20104;-71
2022/11/23 08:51:22;;;;;;;19.95;3.35;;;;;;;7.82;97.63;99808.47;5065554;28;20064;-71
2022/11/23 08:53:50;;;;;;;18.85;3.63;;;;;;;7.79;96.55;99804.25;5060274;28;20025;-71
2022/11/23 08:56:16;;;;;;;19.75;3.30;;;;;;;7.79;96.12;99797.97;5060598;28;20927;-71
2022/11/23 08:58:42;;;;;;;21.63;4.10;;;;;;;7.79;95.99;99800.72;5041889;28;20395;-71
2022/11/23 09:01:09;;;;;;;20.52;3.90;;;;;;;7.71;95.72;99782.66;5048573;28;20032;-72
2022/11/23 09:03:35;;;;;;;;;;;;;;;7.72;95.00;99773.41;5060572;28;20438;-71
2022/11/23 09:06:00;;;;;;;17.85;3.10;;;;;;;7.68;94.81;99774.88;5060050;28;19917;-72
2022/11/23 09:08:26;;;;;;;25.30;4.15;;;;;;;7.67;95.43;99773.19;5059006;28;20033;-71
2022/11/23 09:10:51;;;;;;;14.90;3.38;;;;;;;7.66;94.90;99765.22;5058762;28;20036;-71
2022/11/23 09:13:16;;;;;;;25.73;3.15;;;;;;;7.57;94.12;99766.44;5061309;28;20119;-71
2022/11/23 09:15:42;;;;;;;26.23;3.88;;;;;;;7.65;94.45;99758.09;5040298;28;20060;-70
2022/11/23 09:18:08;;;;;;;13.73;3.30;;;;;;;7.70;94.29;99755.59;5048958;28;20024;-71
2022/11/23 09:20:33;;;;;;;17.77;3.17;;;;;;;7.70;94.30;99755.59;5045568;28;20115;-73
2022/11/23 09:22:59;;;;;;;22.05;3.60;;;;;;;7.77;93.63;99745.53;5050769;28;20538;-71
2022/11/23 09:25:24;;;;;;;20.90;3.35;;;;;;;7.71;93.86;99730.00;5061281;28;20462;-72
2022/11/23 09:27:57;;;;;;;30.88;4.63;;;;;;;7.69;94.40;99732.13;5059822;28;20032;-72
2022/11/23 09:30:22;;;;;;;16.40;3.70;;;;;;;7.73;93.63;99726.03;5061252;28;20472;-71
2022/11/23 09:32:48;;;;;;;17.25;3.45;;;;;;;7.78;92.71;99723.53;5056764;28;20043;-71
2022/11/23 09:35:13;;;;;;;15.73;3.25;;;;;;;7.79;93.29;99716.22;5059289;28;20456;-71
2022/11/23 09:37:38;;;;;;;20.25;3.92;;;;;;;7.88;93.08;99717.66;5061734;28;20048;-71
2022/11/23 09:40:04;;;;;;;17.48;3.30;;;;;;;7.91;93.28;99720.81;5057460;28;20113;-71
2022/11/23 09:42:42;;;;;;;21.38;3.38;;;;;;;7.95;93.77;99716.63;5058021;28;20400;-71
2022/11/23 09:45:46;;;;;;;19.88;3.83;;;;;;;7.89;93.00;99720.19;5050913;28;20036;-70
2022/11/23 09:48:41;;;;;;;22.15;4.05;;;;;;;8.01;92.82;99731.34;4991931;28;20036;-71
2022/11/23 09:51:15;;;;;;;21.00;4.22;;;;;;;8.06;92.32;99737.00;5062930;28;20033;-72
2022/11/23 09:53:46;;;;;;;11.32;3.50;;;;;;;8.04;91.63;99737.22;5065306;28;20020;-71
2022/11/23 09:56:33;;;;;;;12.05;2.80;;;;;;;7.97;92.34;99743.69;5064506;28;20150;-71
2022/11/23 09:59:02;;;;;;;19.90;3.55;;;;;;;7.95;92.47;99726.72;5062317;28;20039;-73
2022/11/23 10:01:29;;;;;;;19.08;3.03;;;;;;;8.06;91.74;99734.28;5048987;28;20029;-72
2022/11/23 10:03:54;;;;;;;17.40;4.22;;;;;;;7.98;92.62;99754.41;5063387;28;20031;-71
2022/11/23 10:06:24;;;;;;;19.40;4.05;;;;;;;7.94;92.20;99744.94;5062029;28;20040;-70
2022/11/23 10:09:17;;;;;;;16.73;3.83;;;;;;;7.84;92.22;99744.50;5063071;28;20048;-72
2022/11/23 10:11:49;;;;;;;13.30;3.63;;;;;;;7.96;92.48;99740.13;5063848;28;20036;-71
2022/11/23 10:14:51;;;;;;;17.63;5.15;;;;;;;7.91;93.22;99758.97;5063836;28;20093;-72
2022/11/23 10:17:55;;;;;;;17.95;4.43;;;;;;;8.03;92.31;99751.91;5041049;28;20040;-70
2022/11/23 10:20:38;;;;;;;19.67;5.28;;;;;;;8.23;92.53;99739.13;5063388;28;20037;-71
2022/11/23 10:23:16;;;;;;;16.98;3.95;;;;;;;8.16;91.34;99737.44;5045554;28;20439;-71
2022/11/23 10:25:47;;;;;;;;;;;;;;;8.09;91.00;99750.19;5045058;28;20025;-70
2022/11/23 10:28:15;;;;;;;17.52;3.58;;;;;;;8.08;91.68;99752.09;5061871;28;20390;-71
2022/11/23 10:30:41;;;;;;;12.80;3.50;;;;;;;7.97;91.85;99752.72;5043914;28;20086;-71
2022/11/23 10:33:19;;;;;;;19.80;5.23;;;;;;;7.89;92.04;99741.16;5060933;28;20143;-71
2022/11/23 10:35:44;;;;;;;17.35;4.30;;;;;;;7.88;92.36;99743.06;5067308;28;20277;-72
2022/11/23 10:38:18;;;;;;;19.75;4.25;;;;;;;7.87;92.09;99740.53;5062477;28;20035;-71
2022/11/23 10:41:09;;;;;;;15.52;3.30;;;;;;;7.94;91.52;99733.19;5043455;28;20392;-71
2022/11/23 10:44:05;;;;;;;15.55;3.90;;;;;;;7.93;91.94;99745.16;5064874;28;20051;-70
2022/11/23 10:46:38;;;;;;;12.15;2.80;;;;;;;7.94;91.49;99725.88;5057689;28;20039;-70
2022/11/23 10:49:20;;;;;;;15.60;3.70;;;;;;;8.07;91.48;99730.50;5056609;28;20033;-72
2022/11/23 10:51:51;;;;;;;17.17;3.88;;;;;;;8.15;91.38;99711.19;5062996;28;20028;-70
2022/11/23 10:54:39;;;;;;;13.65;2.72;;;;;;;8.31;90.45;99697.16;5042751;28;20036;-72
2022/11/23 10:57:44;;;;;;;17.15;3.78;;;;;;;8.36;90.72;99691.91;5050432;28;20047;-71
2022/11/23 11:00:09;;;;;;;13.90;3.53;;;;;;;8.54;90.55;99683.94;5025149;28;20047;-70
2022/11/23 11:02:46;;;;;;;11.57;3.30;;;;;;;8.54;90.09;99664.81;5064933;28;20036;-71
2022/11/23 11:05:26;;;;;;;17.02;3.22;;;;;;;8.57;89.24;99650.72;5044481;28;20013;-73
2022/11/23 11:07:53;;;;;;;8.68;2.55;;;;;;;8.51;89.80;99657.03;5046368;28;20352;-72
2022/11/23 11:10:40;;;;;;;12.20;2.65;;;;;;;8.62;89.80;99657.25;5062401;28;20521;-70
2022/11/23 11:13:31;;;;;;;13.05;3.25;;;;;;;8.68;89.92;99650.06;5065096;28;20099;-69
2022/11/23 11:16:02;;;;;;;15.63;2.97;;;;;;;8.56;90.15;99654.53;5064778;28;20140;-73
2022/11/23 11:18:34;;;;;;;15.23;3.05;;;;;;;8.65;90.06;99642.31;5063102;28;20025;-70
2022/11/23 11:21:04;;;;;;;15.63;3.60;;;;;;;8.68;88.68;99629.09;5059327;28;20412;-73
2022/11/23 11:23:31;;;;;;;11.45;2.75;;;;;;;8.80;89.33;99623.81;5065973;28;20403;-69
2022/11/23 11:26:12;;;;;;;14.00;3.05;;;;;;;8.84;89.43;99619.56;5063329;28;20029;-72
2022/11/23 11:28:42;;;;;;;11.88;2.50;;;;;;;8.94;89.05;99622.69;5044973;28;20407;-71
2022/11/23 11:31:32;;;;;;;12.48;3.40;;;;;;;9.05;88.63;99627.47;5062624;28;20025;-71